Time;durP1;ratioP1;P1;durP2;ratioP2;P2;SDS_P1;SDS_P2;PMS_P1;PMS_P2;Temp;Humidity;BMP_temperature;BMP_pressure;BME280_temperature;BME280_humidity;BME280_pressure;Samples;Min_cycle;Max_cycle;Signal;HPM_P1;HPM_P2
2021/11/02 00:02:13;;;;;;;47.90;30.60;;;;;;;8.48;73.82;100908.88;6121037;23;20181;-64
2021/11/02 00:04:40;;;;;;;50.40;33.73;;;;;;;8.42;73.99;100911.31;6119920;23;20155;-64
2021/11/02 00:07:06;;;;;;;32.90;22.77;;;;;;;8.47;73.72;100910.09;6122589;23;20154;-64
2021/11/02 00:09:38;;;;;;;48.03;32.07;;;;;;;8.45;74.07;100906.97;6124130;23;20530;-64
2021/11/02 00:12:08;;;;;;;44.60;32.10;;;;;;;8.49;74.02;100893.88;6124211;23;20150;-64
2021/11/02 00:14:33;;;;;;;43.87;31.43;;;;;;;7.83;74.25;100807.00;6123722;23;20675;-64
2021/11/02 00:17:06;;;;;;;42.97;31.30;;;;;;;8.64;74.25;100911.84;6123154;23;20182;-64
2021/11/02 00:19:32;;;;;;;40.53;30.17;;;;;;;8.64;73.75;100898.84;6123694;23;20143;-64
2021/11/02 00:22:06;;;;;;;39.57;29.53;;;;;;;8.76;73.59;100906.59;6124182;23;20150;-64
2021/11/02 00:27:00;;;;;;;39.90;30.87;;;;;;;8.87;73.55;100903.69;6123079;23;20162;-64
2021/11/02 00:29:25;;;;;;;44.13;30.73;;;;;;;8.91;73.18;100896.91;6124175;23;20150;-64
2021/11/02 00:31:51;;;;;;;38.50;30.40;;;;;;;8.95;73.04;100888.56;6124449;23;20178;-64
2021/11/02 00:34:16;;;;;;;43.27;30.70;;;;;;;8.76;72.90;100854.09;6124175;23;20154;-64
2021/11/02 00:36:42;;;;;;;39.30;28.60;;;;;;;8.87;72.72;100871.31;6122475;23;20158;-64
2021/11/02 00:39:07;;;;;;;37.47;29.77;;;;;;;8.80;72.50;100871.41;6123825;23;20241;-64
2021/11/02 00:41:33;;;;;;;42.67;30.67;;;;;;;8.91;73.03;100888.63;6123941;23;20189;-64
2021/11/02 00:43:59;;;;;;;43.80;31.87;;;;;;;8.43;73.40;100818.19;6124161;23;20155;-64
2021/11/02 00:46:31;;;;;;;43.43;30.93;;;;;;;8.78;73.72;100881.31;6122066;23;20150;-64
2021/11/02 00:49:01;;;;;;;42.53;30.33;;;;;;;8.78;73.38;100873.81;6123763;23;20668;-65
2021/11/02 00:51:27;;;;;;;43.63;31.47;;;;;;;8.99;73.46;100878.25;6124123;23;20222;-64
2021/11/02 00:53:53;;;;;;;46.47;31.67;;;;;;;9.01;73.48;100878.63;6124168;23;20509;-64
2021/11/02 00:56:19;;;;;;;41.60;31.47;;;;;;;8.98;73.65;100868.41;6122252;23;20156;-64
2021/11/02 00:58:44;;;;;;;46.27;33.30;;;;;;;8.94;73.83;100868.47;6124269;23;20242;-64
2021/11/02 01:01:10;;;;;;;43.87;33.03;;;;;;;8.97;73.96;100861.31;6123610;23;20156;-64
2021/11/02 01:03:36;;;;;;;48.20;34.47;;;;;;;8.86;74.63;100857.91;6124285;23;20477;-64
2021/11/02 01:06:03;;;;;;;45.20;33.17;;;;;;;8.90;74.68;100864.16;6122431;23;20150;-65
2021/11/02 01:08:29;;;;;;;48.10;33.90;;;;;;;8.95;74.57;100869.22;6124068;23;20154;-65
2021/11/02 01:10:55;;;;;;;52.03;34.47;;;;;;;8.98;74.89;100868.41;6123400;23;20505;-65
2021/11/02 01:13:20;;;;;;;46.50;33.17;;;;;;;9.05;74.38;100871.88;6123888;23;20152;-65
2021/11/02 01:15:46;;;;;;;43.63;32.23;;;;;;;9.11;74.56;100855.56;6122328;23;20213;-65
2021/11/02 01:18:12;;;;;;;47.53;33.13;;;;;;;9.13;74.24;100865.03;6122982;23;20189;-65
2021/11/02 01:20:38;;;;;;;40.83;30.67;;;;;;;9.21;74.03;100868.47;6122166;23;20665;-65
2021/11/02 01:23:04;;;;;;;42.30;31.30;;;;;;;9.18;73.80;100853.50;6122319;23;20179;-65
2021/11/02 01:25:30;;;;;;;43.83;32.10;;;;;;;9.13;73.43;100839.38;6121164;23;20158;-64
2021/11/02 01:27:55;;;;;;;48.67;33.83;;;;;;;9.17;74.05;100845.63;6121927;23;20510;-64
2021/11/02 01:30:21;;;;;;;46.63;33.30;;;;;;;9.21;74.36;100849.91;6122173;23;20176;-64
2021/11/02 01:32:47;;;;;;;54.27;35.60;;;;;;;9.25;74.43;100853.41;6122436;23;20150;-65
2021/11/02 01:35:12;;;;;;;57.43;36.40;;;;;;;9.21;74.62;100862.94;6121535;23;20681;-65
2021/11/02 01:37:39;;;;;;;52.33;36.67;;;;;;;8.74;74.68;100765.31;6095418;23;20182;-65
2021/11/02 01:40:07;;;;;;;58.33;36.40;;;;;;;9.25;74.91;100842.34;6122046;23;20158;-64
2021/11/02 01:42:32;;;;;;;50.40;35.50;;;;;;;9.26;75.08;100840.34;6122136;23;20225;-65
2021/11/02 01:44:59;;;;;;;56.43;36.97;;;;;;;9.31;75.08;100839.88;6121344;23;20681;-65
2021/11/02 01:47:25;;;;;;;46.50;33.70;;;;;;;8.87;75.16;100760.75;6121233;23;20660;-64
2021/11/02 01:49:51;;;;;;;42.80;30.83;;;;;;;9.45;74.67;100840.47;6122225;23;20163;-65
2021/11/02 01:52:16;;;;;;;46.00;33.13;;;;;;;9.46;74.35;100817.13;6121874;23;20155;-64
2021/11/02 01:54:42;;;;;;;45.87;31.20;;;;;;;9.34;74.00;100792.84;6121462;23;20512;-64
2021/11/02 01:57:08;;;;;;;41.53;30.80;;;;;;;9.44;74.17;100802.16;6121186;23;20946;-64
2021/11/02 01:59:35;;;;;;;41.33;31.20;;;;;;;9.51;74.14;100811.09;6121909;23;20187;-64
2021/11/02 02:02:07;;;;;;;39.80;30.40;;;;;;;9.57;73.96;100803.09;6122136;23;20150;-64
2021/11/02 02:05:09;;;;;;;43.43;30.97;;;;;;;9.54;73.92;100801.19;6121646;23;20594;-65
2021/11/02 02:08:03;;;;;;;38.33;28.53;;;;;;;9.59;73.79;100811.78;6121754;23;20199;-65
2021/11/02 02:10:47;;;;;;;38.97;30.03;;;;;;;9.62;73.58;100817.25;6071354;23;20189;-65
2021/11/02 02:13:42;;;;;;;39.90;29.97;;;;;;;9.62;73.30;100811.72;6122308;23;20197;-65
2021/11/02 02:16:10;;;;;;;38.37;30.30;;;;;;;9.62;73.43;100805.38;6120160;23;20230;-65
2021/11/02 02:19:02;;;;;;;41.53;30.43;;;;;;;9.54;73.66;100788.13;6122183;23;20656;-65
2021/11/02 02:21:54;;;;;;;44.17;32.30;;;;;;;9.26;74.44;100774.78;6121774;23;20147;-65
2021/11/02 02:24:41;;;;;;;43.07;31.10;;;;;;;9.35;74.73;100791.63;6121791;23;20140;-65
2021/11/02 02:27:44;;;;;;;41.00;31.30;;;;;;;9.41;74.33;100795.47;6120872;23;20163;-65
2021/11/02 02:30:12;;;;;;;40.20;29.33;;;;;;;9.48;74.07;100802.88;6121433;23;20153;-65
2021/11/02 02:32:44;;;;;;;43.77;31.63;;;;;;;9.51;74.33;100804.78;6121843;23;20157;-65
2021/11/02 02:35:11;;;;;;;40.60;31.00;;;;;;;9.39;74.17;100772.19;6120781;23;20142;-64
2021/11/02 02:37:39;;;;;;;40.20;31.57;;;;;;;8.98;74.03;100695.03;6120914;23;20209;-65
2021/11/02 02:40:06;;;;;;;42.53;31.30;;;;;;;9.29;74.05;100743.53;6121611;23;20155;-65
2021/11/02 02:42:34;;;;;;;43.13;31.63;;;;;;;9.59;74.26;100782.09;6121113;23;20435;-65
2021/11/02 02:45:01;;;;;;;42.53;31.90;;;;;;;9.60;74.25;100780.13;6120774;23;20464;-65
2021/11/02 02:47:28;;;;;;;40.53;31.37;;;;;;;9.61;74.20;100773.38;6120614;23;20732;-65
2021/11/02 02:49:55;;;;;;;40.83;31.37;;;;;;;9.60;74.33;100767.09;6121443;23;20158;-64
2021/11/02 02:52:23;;;;;;;43.83;31.67;;;;;;;9.62;74.32;100742.53;6121374;23;20563;-65
2021/11/02 02:54:51;;;;;;;44.97;31.43;;;;;;;9.61;74.37;100742.97;6120848;23;20216;-65
2021/11/02 02:57:19;;;;;;;46.73;33.30;;;;;;;9.65;74.41;100738.94;6120537;23;20185;-65
2021/11/02 02:59:45;;;;;;;48.53;34.33;;;;;;;9.30;74.62;100687.00;6121294;23;20507;-65
2021/11/02 03:02:12;;;;;;;61.70;39.07;;;;;;;9.22;75.17;100659.91;6121138;23;20153;-64
2021/11/02 03:04:42;;;;;;;57.03;37.07;;;;;;;9.79;75.37;100729.59;6120828;23;20519;-65
2021/11/02 03:07:07;;;;;;;90.20;46.77;;;;;;;9.83;76.17;100731.06;6120552;23;20160;-65
2021/11/02 03:09:33;;;;;;;96.37;48.40;;;;;;;9.64;77.23;100686.78;6121690;23;20153;-65
2021/11/02 03:12:01;;;;;;;98.30;47.57;;;;;;;9.93;77.47;100719.00;6120781;23;20664;-64
2021/11/02 03:14:35;;;;;;;101.53;48.57;;;;;;;9.99;77.05;100724.84;6121009;23;20163;-64
2021/11/02 03:17:12;;;;;;;93.30;47.50;;;;;;;10.03;77.40;100728.31;6120621;23;20420;-64
2021/11/02 03:20:27;;;;;;;102.33;48.90;;;;;;;10.06;77.75;100725.53;6121437;23;20138;-64
2021/11/02 03:50:38;;;;;;;67.80;39.33;;;;;;;10.39;74.14;100754.09;6121210;23;20149;-65
2021/11/02 03:55:37;;;;;;;67.97;39.43;;;;;;;10.30;73.78;100756.69;6120642;23;20190;-65
2021/11/02 03:58:12;;;;;;;61.97;37.63;;;;;;;10.32;73.51;100743.97;6095106;23;20175;-65
2021/11/02 04:30:49;;;;;;;69.13;40.30;;;;;;;9.87;76.01;100675.66;6120879;23;20233;-64
2021/11/02 05:53:30;;;;;;;51.33;36.47;;;;;;;10.52;76.12;100636.66;6118595;23;20150;-65
2021/11/02 05:58:38;;;;;;;48.33;35.23;;;;;;;10.59;76.05;100657.88;6120048;23;20178;-65
2021/11/02 06:03:46;;;;;;;52.43;35.07;;;;;;;10.68;75.74;100650.53;6106455;23;20162;-65
2021/11/02 06:28:54;;;;;;;54.80;35.37;;;;;;;10.68;75.86;100608.97;6119727;23;20632;-65
2021/11/02 06:31:27;;;;;;;52.87;34.63;;;;;;;10.75;75.91;100605.22;6119361;23;20154;-65
2021/11/02 06:50:45;;;;;;;47.60;30.60;;;;;;;11.08;74.67;100604.78;6118082;23;20197;-65
2021/11/02 07:15:46;;;;;;;47.77;31.37;;;;;;;10.63;73.88;100567.91;6118683;23;20192;-64
2021/11/02 07:18:26;;;;;;;43.87;29.90;;;;;;;11.05;74.46;100633.38;6117292;23;20219;-65
2021/11/02 07:23:35;;;;;;;44.00;28.87;;;;;;;11.13;73.74;100637.50;6119485;23;20616;-65
2021/11/02 07:26:32;;;;;;;43.07;28.93;;;;;;;10.95;74.01;100616.97;6110186;23;20142;-65
2021/11/02 08:47:36;;;;;;;41.33;30.10;;;;;;;10.41;78.07;100586.25;6120262;23;20185;-64
2021/11/02 08:50:08;;;;;;;40.20;29.40;;;;;;;10.78;77.62;100623.75;6120741;23;20141;-64
2021/11/02 08:52:34;;;;;;;41.13;28.87;;;;;;;10.91;76.69;100636.50;6120370;23;20145;-64
2021/11/02 08:55:01;;;;;;;39.13;29.47;;;;;;;10.99;76.54;100640.66;6119810;23;20198;-64
2021/11/02 08:57:27;;;;;;;42.40;29.93;;;;;;;10.61;76.54;100573.09;6120574;23;20496;-64
2021/11/02 08:59:54;;;;;;;40.97;29.10;;;;;;;10.79;75.91;100587.28;6119834;23;20165;-64
2021/11/02 09:02:33;;;;;;;39.53;28.63;;;;;;;11.12;76.27;100611.00;6121007;23;20557;-64
2021/11/02 09:05:11;;;;;;;42.57;28.40;;;;;;;11.30;75.92;100624.38;6120130;23;20141;-64
2021/11/02 09:07:38;;;;;;;40.90;27.80;;;;;;;11.38;75.91;100626.53;6119963;23;20172;-64
2021/11/02 09:10:21;;;;;;;37.53;27.63;;;;;;;11.36;75.85;100628.97;6120068;23;20163;-64
2021/11/02 09:12:49;;;;;;;35.90;25.63;;;;;;;11.49;75.71;100632.59;6121207;23;20164;-64
2021/11/02 09:15:17;;;;;;;31.50;22.87;;;;;;;11.58;75.23;100654.16;6119695;23;20197;-64
2021/11/02 09:17:47;;;;;;;29.00;21.70;;;;;;;11.65;74.27;100646.44;6120228;23;20151;-65
2021/11/02 09:20:15;;;;;;;26.60;20.47;;;;;;;11.70;74.39;100654.25;6119777;23;20155;-64
2021/11/02 09:22:42;;;;;;;28.27;20.90;;;;;;;11.71;74.30;100644.69;6120581;23;20158;-64
2021/11/02 09:25:09;;;;;;;27.03;19.90;;;;;;;10.61;74.27;100475.34;6117416;23;20594;-64
2021/11/02 09:27:39;;;;;;;26.07;19.73;;;;;;;11.67;74.55;100646.00;6092818;23;20276;-67
2021/11/02 09:30:06;;;;;;;25.50;18.07;;;;;;;11.69;74.23;100647.09;6120079;23;20161;-67
2021/11/02 09:32:34;;;;;;;25.00;18.03;;;;;;;11.69;74.20;100629.69;6119670;23;20186;-67
2021/11/02 09:35:00;;;;;;;26.07;19.03;;;;;;;11.60;73.96;100640.63;6119567;23;20490;-66
2021/11/02 09:37:33;;;;;;;24.53;19.47;;;;;;;11.53;74.85;100629.72;6119635;23;20150;-66
2021/11/02 09:40:20;;;;;;;26.10;19.50;;;;;;;11.39;74.92;100622.56;6119269;23;20165;-65
2021/11/02 09:43:10;;;;;;;30.27;20.97;;;;;;;11.43;75.03;100614.91;6120278;23;20216;-62
2021/11/02 09:46:03;;;;;;;30.67;20.03;;;;;;;11.43;75.77;100606.56;6104605;23;20178;-66
2021/11/02 09:49:09;;;;;;;31.77;22.40;;;;;;;11.42;75.57;100584.84;6073297;23;20292;-64
2021/11/02 09:51:59;;;;;;;31.37;22.77;;;;;;;11.41;75.54;100578.50;6120234;23;20612;-63
2021/11/02 09:54:48;;;;;;;33.77;24.27;;;;;;;11.43;76.17;100562.19;6119014;23;20157;-63
2021/11/02 09:57:47;;;;;;;30.60;22.67;;;;;;;11.46;76.16;100555.75;6061459;23;20541;-62
2021/11/02 10:00:34;;;;;;;34.30;24.40;;;;;;;11.48;76.44;100560.88;6118131;23;20146;-63
2021/11/02 10:03:30;;;;;;;33.50;23.70;;;;;;;11.56;76.34;100565.78;6118447;23;20134;-64
2021/11/02 10:06:23;;;;;;;26.93;20.27;;;;;;;11.63;76.10;100598.91;6094990;23;20162;-64
2021/11/02 10:09:40;;;;;;;24.20;18.53;;;;;;;11.58;75.19;100613.28;6119307;23;20181;-65
2021/11/02 10:12:50;;;;;;;28.20;19.17;;;;;;;11.40;75.99;100612.22;6069308;23;20172;-63
2021/11/02 10:15:33;;;;;;;29.67;21.17;;;;;;;11.30;76.38;100618.84;6087148;23;20169;-63
2021/11/02 10:18:32;;;;;;;27.33;21.40;;;;;;;11.18;76.76;100603.69;6118929;23;20141;-63
2021/11/02 10:21:35;;;;;;;26.83;19.77;;;;;;;11.28;76.72;100599.84;6092396;23;20177;-63
2021/11/02 10:24:26;;;;;;;28.10;19.40;;;;;;;11.33;76.57;100582.69;6119162;23;20593;-62
2021/11/02 10:27:00;;;;;;;28.00;20.63;;;;;;;11.36;76.75;100583.78;6116786;23;20141;-62
2021/11/02 10:29:40;;;;;;;26.37;19.87;;;;;;;11.45;77.04;100584.72;6119266;23;20153;-63
2021/11/02 10:32:12;;;;;;;27.40;21.53;;;;;;;11.54;77.02;100576.53;6119725;23;20145;-62
2021/11/02 10:34:58;;;;;;;24.87;19.57;;;;;;;11.64;76.55;100569.16;6118550;23;20152;-62
2021/11/02 10:37:55;;;;;;;24.67;19.97;;;;;;;11.79;76.15;100568.28;6118935;23;20229;-62
2021/11/02 10:40:34;;;;;;;28.80;20.90;;;;;;;11.88;75.55;100570.44;6117993;23;20192;-62
2021/11/02 10:43:23;;;;;;;26.80;21.53;;;;;;;11.92;75.40;100565.53;6119646;23;20139;-63
2021/11/02 10:45:55;;;;;;;32.57;22.67;;;;;;;11.09;74.81;100436.38;6118815;23;20151;-63
2021/11/02 10:48:30;;;;;;;30.37;24.17;;;;;;;12.14;75.08;100572.78;6118028;23;20206;-63
2021/11/02 10:51:05;;;;;;;35.67;28.83;;;;;;;12.24;75.37;100570.91;6117732;23;20529;-63
2021/11/02 10:53:46;;;;;;;28.87;23.67;;;;;;;12.17;74.17;100552.44;6093280;23;20604;-63
2021/11/02 10:56:49;;;;;;;25.63;21.23;;;;;;;12.16;73.78;100564.78;6116791;23;20192;-62
2021/11/02 10:59:16;;;;;;;27.67;22.20;;;;;;;12.17;74.69;100557.22;6096865;23;20302;-62
2021/11/02 11:01:46;;;;;;;31.23;21.80;;;;;;;12.25;74.65;100548.22;6119205;23;20162;-63
2021/11/02 11:04:13;;;;;;;25.60;20.13;;;;;;;12.49;74.02;100557.75;6118458;23;20627;-63
2021/11/02 11:06:42;;;;;;;25.77;19.37;;;;;;;12.66;73.80;100561.19;6118857;23;20158;-63
2021/11/02 11:09:12;;;;;;;23.83;18.50;;;;;;;12.72;73.03;100562.19;6118283;23;20236;-62
2021/11/02 11:11:44;;;;;;;24.03;18.63;;;;;;;12.69;72.97;100554.72;6118984;23;20155;-62
2021/11/02 11:14:13;;;;;;;20.90;15.73;;;;;;;12.61;72.60;100556.19;6118987;23;20575;-60
2021/11/02 11:16:45;;;;;;;19.13;15.17;;;;;;;12.65;71.90;100556.88;6117931;23;20260;-60
2021/11/02 11:19:20;;;;;;;19.90;16.33;;;;;;;12.56;72.09;100551.97;6118363;23;20143;-60
2021/11/02 11:21:46;;;;;;;23.47;18.47;;;;;;;12.56;72.51;100546.41;6119400;23;20147;-60
2021/11/02 11:24:46;;;;;;;24.13;18.13;;;;;;;12.67;72.65;100534.94;6119009;23;20158;-60
2021/11/02 11:27:13;;;;;;;25.97;19.70;;;;;;;12.69;73.45;100546.38;6118394;23;20207;-60
2021/11/02 11:29:49;;;;;;;25.50;19.07;;;;;;;12.75;72.89;100550.94;6092407;23;20193;-60
2021/11/02 11:32:17;;;;;;;24.17;18.57;;;;;;;12.74;73.05;100541.03;6119025;23;20209;-60
2021/11/02 11:34:47;;;;;;;26.63;18.47;;;;;;;12.84;72.63;100541.88;6117770;23;20158;-60
2021/11/02 11:37:14;;;;;;;25.80;18.53;;;;;;;12.90;73.01;100532.53;6118698;23;20203;-61
2021/11/02 11:39:42;;;;;;;20.37;17.60;;;;;;;12.91;73.03;100538.88;6117343;23;20158;-60
2021/11/02 11:42:13;;;;;;;20.53;17.37;;;;;;;12.96;72.80;100524.44;6118593;23;20223;-60
2021/11/02 11:44:49;;;;;;;20.23;16.70;;;;;;;13.13;72.58;100521.03;6091745;23;20166;-60
2021/11/02 11:47:23;;;;;;;20.90;16.73;;;;;;;13.21;72.70;100516.00;6118441;23;20181;-61
2021/11/02 11:49:49;;;;;;;16.13;14.17;;;;;;;13.44;72.54;100518.31;6117712;23;20150;-61
2021/11/02 11:52:21;;;;;;;15.40;12.80;;;;;;;13.56;71.39;100534.16;6118878;23;20161;-61
2021/11/02 11:54:49;;;;;;;15.77;11.93;;;;;;;13.58;70.65;100529.69;6118470;23;20156;-60
2021/11/02 11:57:25;;;;;;;12.60;10.90;;;;;;;13.39;70.81;100507.75;6118313;23;20185;-60
2021/11/02 11:59:51;;;;;;;9.83;8.23;;;;;;;13.67;69.71;100524.16;6117888;23;20636;-60
2021/11/02 12:02:47;;;;;;;10.33;9.10;;;;;;;13.89;69.12;100524.13;6119077;23;20157;-61
2021/11/02 12:05:18;;;;;;;13.03;9.90;;;;;;;14.04;68.77;100525.91;6117222;23;20194;-61
2021/11/02 12:08:07;;;;;;;9.53;8.30;;;;;;;14.11;68.43;100528.41;6118513;23;20285;-61
2021/11/02 12:10:34;;;;;;;9.07;7.63;;;;;;;14.03;68.19;100523.59;6117777;23;20145;-61
2021/11/02 12:13:05;;;;;;;9.07;8.17;;;;;;;14.15;67.10;100514.34;6118789;23;20165;-61
2021/11/02 12:16:21;;;;;;;8.93;7.83;;;;;;;14.32;67.24;100519.22;6118368;23;20159;-61
2021/11/02 12:18:48;;;;;;;11.63;9.47;;;;;;;14.40;67.01;100517.69;6118401;23;20165;-61
2021/11/02 12:21:18;;;;;;;10.83;9.20;;;;;;;14.39;67.07;100521.72;6117828;23;20150;-61
2021/11/02 12:23:48;;;;;;;11.40;9.43;;;;;;;13.77;67.23;100439.44;6118902;23;20165;-61
2021/11/02 12:26:14;;;;;;;11.23;8.90;;;;;;;14.35;67.05;100521.09;6115011;23;20157;-61
2021/11/02 12:28:50;;;;;;;10.00;8.63;;;;;;;14.42;67.57;100518.03;6118210;23;20178;-61
2021/11/02 12:31:18;;;;;;;10.57;8.70;;;;;;;14.34;67.16;100516.00;6118217;23;20157;-61
2021/11/02 12:33:50;;;;;;;10.37;8.73;;;;;;;14.24;67.29;100525.56;6119451;23;20599;-61
2021/11/02 12:36:24;;;;;;;10.80;8.80;;;;;;;14.19;67.54;100529.69;6115589;23;20162;-62
2021/11/02 12:38:59;;;;;;;10.30;9.20;;;;;;;14.15;68.29;100531.06;6118060;23;20321;-61
2021/11/02 12:41:25;;;;;;;10.20;8.70;;;;;;;14.01;67.90;100528.81;6118705;23;20619;-61
2021/11/02 12:44:05;;;;;;;8.97;7.47;;;;;;;13.96;68.06;100535.78;6118840;23;20157;-61
2021/11/02 12:46:33;;;;;;;9.23;8.23;;;;;;;13.89;68.78;100533.25;6117294;23;20634;-61
2021/11/02 12:49:06;;;;;;;10.57;7.97;;;;;;;13.77;68.83;100542.47;6117287;23;20287;-61
2021/11/02 12:51:48;;;;;;;9.00;8.10;;;;;;;13.57;68.74;100513.44;6118020;23;20233;-61
2021/11/02 12:54:18;;;;;;;9.67;7.97;;;;;;;13.54;69.68;100517.91;6091692;23;20156;-61
2021/11/02 12:56:57;;;;;;;10.43;8.37;;;;;;;13.53;69.21;100530.25;6117556;23;20164;-62
2021/11/02 12:59:28;;;;;;;9.43;8.10;;;;;;;13.63;69.50;100525.53;6117771;23;20138;-62
2021/11/02 13:01:59;;;;;;;9.33;7.70;;;;;;;13.56;69.62;100517.44;6118325;23;20194;-62
2021/11/02 13:04:33;;;;;;;8.43;7.53;;;;;;;13.47;69.06;100518.16;6092188;23;20169;-62
2021/11/02 13:07:01;;;;;;;9.10;7.87;;;;;;;13.51;69.18;100509.69;6117818;23;20168;-61
2021/11/02 13:09:34;;;;;;;9.93;8.03;;;;;;;13.66;69.37;100519.03;6117286;23;20161;-61
2021/11/02 13:12:04;;;;;;;9.17;7.63;;;;;;;13.46;69.14;100511.06;6117846;23;20148;-61
2021/11/02 13:14:43;;;;;;;8.43;7.53;;;;;;;13.54;69.09;100526.28;6119693;23;20161;-62
2021/11/02 13:17:11;;;;;;;8.30;7.47;;;;;;;13.58;68.90;100529.69;6119004;23;20218;-62
2021/11/02 13:19:46;;;;;;;7.60;6.77;;;;;;;13.55;68.32;100530.59;6120055;23;20237;-61
2021/11/02 13:22:19;;;;;;;8.60;7.50;;;;;;;13.69;67.96;100534.84;6119984;23;20165;-61
2021/11/02 13:25:05;;;;;;;9.23;8.17;;;;;;;13.70;68.82;100533.63;6119736;23;20145;-62
2021/11/02 13:27:42;;;;;;;9.57;8.20;;;;;;;13.39;69.45;100496.63;6119656;23;20527;-62
2021/11/02 13:30:31;;;;;;;8.60;7.23;;;;;;;13.43;68.71;100528.66;6119461;23;20684;-62
2021/11/02 13:33:04;;;;;;;8.80;7.90;;;;;;;13.35;68.94;100529.38;6119154;23;20154;-61
2021/11/02 13:35:58;;;;;;;8.77;7.53;;;;;;;13.26;69.58;100520.94;6113255;23;20155;-61
2021/11/02 13:38:39;;;;;;;10.77;8.47;;;;;;;13.22;70.04;100521.06;6116815;23;20648;-61
2021/11/02 13:41:16;;;;;;;11.27;8.57;;;;;;;13.19;70.37;100532.34;6116666;23;20606;-62
2021/11/02 13:43:49;;;;;;;9.40;8.33;;;;;;;13.16;71.15;100533.25;6120215;23;20574;-62
2021/11/02 13:46:18;;;;;;;9.90;8.60;;;;;;;13.13;71.60;100540.50;6118317;23;20609;-62
2021/11/02 13:48:44;;;;;;;9.43;8.53;;;;;;;13.07;71.45;100544.31;6120106;23;20202;-62
2021/11/02 13:51:13;;;;;;;10.10;8.57;;;;;;;13.07;71.96;100541.53;6119010;23;20212;-62
2021/11/02 13:53:39;;;;;;;9.47;8.47;;;;;;;13.05;71.19;100538.41;6119899;23;20154;-62
2021/11/02 13:56:07;;;;;;;10.33;9.07;;;;;;;12.90;71.78;100518.63;6118464;23;20196;-62
2021/11/02 13:58:34;;;;;;;9.67;8.47;;;;;;;12.94;71.62;100540.75;6119151;23;20160;-62
2021/11/02 14:01:00;;;;;;;10.50;9.40;;;;;;;12.90;71.69;100540.88;6119096;23;20217;-62
2021/11/02 14:03:57;;;;;;;10.47;9.37;;;;;;;12.89;71.93;100538.53;6093688;23;20174;-62
2021/11/02 14:06:24;;;;;;;9.90;8.90;;;;;;;12.85;71.95;100535.88;6083161;23;20158;-62
2021/11/02 14:08:51;;;;;;;10.17;9.00;;;;;;;12.83;72.21;100534.78;6118258;23;20213;-62
2021/11/02 14:11:21;;;;;;;11.83;9.60;;;;;;;12.86;72.37;100531.13;6120056;23;20163;-62
2021/11/02 14:13:48;;;;;;;11.63;10.17;;;;;;;12.82;72.50;100534.00;6118334;23;20151;-62
2021/11/02 14:16:25;;;;;;;11.20;9.40;;;;;;;12.41;71.79;100469.50;6118071;23;20218;-62
2021/11/02 14:18:51;;;;;;;10.97;9.73;;;;;;;12.87;71.96;100543.78;6094866;23;20271;-62
2021/11/02 14:21:45;;;;;;;13.33;9.80;;;;;;;12.90;71.96;100542.88;6116029;23;20181;-62
2021/11/02 14:24:11;;;;;;;10.57;9.30;;;;;;;12.84;72.33;100534.34;6119970;23;20552;-62
2021/11/02 14:26:47;;;;;;;10.80;9.60;;;;;;;12.93;72.42;100542.78;6118553;23;20161;-62
2021/11/02 14:29:13;;;;;;;11.23;9.63;;;;;;;12.94;72.46;100538.75;6121732;23;20655;-62
2021/11/02 14:31:38;;;;;;;10.53;9.37;;;;;;;12.91;72.92;100545.22;6121899;23;20161;-62
2021/11/02 14:34:27;;;;;;;10.50;9.40;;;;;;;12.92;73.53;100537.66;6095200;23;20430;-63
2021/11/02 14:37:18;;;;;;;12.67;10.37;;;;;;;12.86;73.05;100533.91;6102672;23;20200;-62
2021/11/02 14:40:00;;;;;;;12.87;11.57;;;;;;;12.85;73.29;100526.75;6095740;23;20160;-62
2021/11/02 14:42:44;;;;;;;14.37;11.87;;;;;;;12.80;73.10;100517.00;6120960;23;20159;-63
2021/11/02 14:45:12;;;;;;;15.87;12.63;;;;;;;12.78;73.02;100518.66;6120576;23;20168;-62
2021/11/02 14:47:38;;;;;;;14.27;12.37;;;;;;;12.73;72.93;100522.81;6121336;23;20195;-62
2021/11/02 14:50:34;;;;;;;14.60;12.87;;;;;;;12.76;73.25;100535.03;6121396;23;20488;-62
2021/11/02 14:53:28;;;;;;;16.20;14.20;;;;;;;12.69;73.29;100535.25;6095454;23;20154;-63
2021/11/02 14:56:16;;;;;;;16.13;13.87;;;;;;;12.53;73.68;100519.53;6120298;23;20138;-62
2021/11/02 14:58:42;;;;;;;16.53;14.03;;;;;;;12.61;73.42;100526.38;6106131;23;20158;-63
2021/11/02 15:01:25;;;;;;;16.13;14.20;;;;;;;12.58;73.06;100513.38;6121253;23;20610;-62
2021/11/02 15:04:18;;;;;;;16.63;14.83;;;;;;;12.43;73.16;100498.41;6121544;23;20209;-62
2021/11/02 15:06:55;;;;;;;17.17;15.07;;;;;;;12.55;73.50;100521.84;6121153;23;20200;-62
2021/11/02 15:09:23;;;;;;;19.97;16.87;;;;;;;12.51;73.64;100516.38;6121481;23;20569;-63
2021/11/02 15:11:50;;;;;;;18.53;16.53;;;;;;;12.16;73.59;100473.13;6120918;23;20495;-63
2021/11/02 15:14:21;;;;;;;19.00;16.43;;;;;;;12.43;73.58;100528.19;6121077;23;20165;-63
2021/11/02 15:16:56;;;;;;;19.67;16.90;;;;;;;12.46;73.64;100550.31;6121008;23;20158;-63
2021/11/02 15:19:24;;;;;;;20.13;17.53;;;;;;;12.43;73.40;100548.44;6121558;23;20140;-62
2021/11/02 15:21:56;;;;;;;22.17;18.83;;;;;;;12.38;73.54;100540.66;6121224;23;20441;-63
2021/11/02 15:24:24;;;;;;;20.40;17.47;;;;;;;12.42;73.96;100551.66;6120961;23;20157;-63
2021/11/02 15:26:56;;;;;;;22.27;18.27;;;;;;;12.37;74.47;100546.66;6120715;23;20151;-62
2021/11/02 15:29:27;;;;;;;22.17;17.60;;;;;;;12.36;74.44;100564.56;6121566;23;20188;-62
2021/11/02 15:32:02;;;;;;;19.13;17.00;;;;;;;12.35;74.52;100571.34;6121094;23;20665;-61
2021/11/02 15:34:46;;;;;;;20.23;17.30;;;;;;;12.36;74.75;100572.91;6120819;23;20584;-61
2021/11/02 15:37:16;;;;;;;20.20;17.47;;;;;;;12.29;74.70;100564.78;6121084;23;20139;-61
2021/11/02 15:39:45;;;;;;;22.57;17.60;;;;;;;12.24;74.75;100552.22;6121024;23;20185;-62
2021/11/02 15:42:29;;;;;;;21.27;17.23;;;;;;;12.30;74.34;100552.44;6121032;23;20670;-62
2021/11/02 15:45:06;;;;;;;20.70;16.97;;;;;;;12.13;74.26;100539.88;6119859;23;20213;-62
2021/11/02 15:47:34;;;;;;;21.63;18.30;;;;;;;12.00;75.57;100608.53;6121040;23;20577;-61
2021/11/02 15:50:06;;;;;;;19.70;16.67;;;;;;;11.56;76.58;100637.16;6095117;23;20170;-61
2021/11/02 15:52:33;;;;;;;23.23;18.23;;;;;;;11.30;77.66;100647.38;6120851;23;20180;-63
2021/11/02 15:55:12;;;;;;;38.57;26.70;;;;;;;11.15;79.06;100650.94;6120054;23;20250;-63
2021/11/02 15:58:06;;;;;;;56.40;35.23;;;;;;;10.76;79.89;100598.47;6121413;23;20508;-63
2021/11/02 16:00:40;;;;;;;58.67;36.43;;;;;;;11.07;80.56;100653.09;6111390;23;20224;-63
2021/11/02 16:03:06;;;;;;;64.30;41.17;;;;;;;10.90;81.20;100654.34;6120872;23;20666;-64
2021/11/02 16:05:34;;;;;;;66.13;42.43;;;;;;;10.92;81.47;100646.34;6120169;23;20180;-63
2021/11/02 16:08:12;;;;;;;66.80;42.73;;;;;;;10.94;81.60;100643.16;6120986;23;20177;-63
2021/11/02 16:10:37;;;;;;;63.23;40.00;;;;;;;10.51;81.79;100563.03;6120916;23;20495;-63
2021/11/02 16:13:04;;;;;;;62.77;39.70;;;;;;;11.04;81.74;100589.44;6120623;23;20193;-64
2021/11/02 16:15:33;;;;;;;53.33;34.27;;;;;;;11.14;81.51;100622.44;6119865;23;20157;-63
2021/11/02 16:18:02;;;;;;;51.57;33.50;;;;;;;11.28;81.05;100616.50;6121250;23;20153;-64
2021/11/02 16:20:29;;;;;;;51.77;33.37;;;;;;;11.23;80.65;100605.94;6120674;23;20157;-64
2021/11/02 16:23:06;;;;;;;51.20;33.30;;;;;;;11.24;80.12;100628.91;6120662;23;20208;-64
2021/11/02 16:25:37;;;;;;;46.73;31.73;;;;;;;11.60;79.83;100677.50;6119726;23;20157;-64
2021/11/02 16:28:07;;;;;;;47.97;31.27;;;;;;;11.69;79.54;100676.88;6120543;23;20194;-64
2021/11/02 16:30:55;;;;;;;47.07;31.17;;;;;;;11.76;79.02;100677.47;6120892;23;20616;-64
2021/11/02 16:33:34;;;;;;;48.73;31.67;;;;;;;11.83;78.90;100684.81;6120946;23;20209;-64
2021/11/02 16:36:28;;;;;;;49.30;31.37;;;;;;;11.88;78.36;100675.97;6119726;23;20149;-63
2021/11/02 16:38:58;;;;;;;45.50;30.33;;;;;;;11.92;78.58;100691.28;6094954;23;20157;-63